Main page
METAR-TAF:

METAR-TAF

Airports :

Rabat–Salé Airport

Rabat, Morocco

latitude: 34-03N, longitude: 006-46W, elevation: 84 m

Current weather observation

The report was made 30 minutes ago, at 15:00 UTC
Wind 6 kt from the North, varying between West and North/Northeast
Temperature 16°C
Humidity 48%
Pressure 1024 hPa
Visibility: 6000 m
Scattered clouds at a height of 1600 ft
Scattered clouds at a height of 2600 ft

METAR: GMME 281500Z 35006KT 280V030 6000 SCT016 SCT026 16/05 Q1024 NOSIG

Time: 16:30 (15:30 UTC)

Forecast

The report was made 4 hours and 30 minutes ago, at 11:00 UTC
Forecast valid from 28 at 12 UTC to 29 at 18 UTC
Wind 5 kt from the North
Visibility: 6000 m
Scattered clouds at a height of 1600 ft
Scattered clouds at a height of 3300 ft
Probability 30% :
Temporary
from 29 at 14 UTC to 29 at 18 UTC
Visibility: 4000 m
rain

TAF: GMME 281100Z 2812/2918 01005KT 6000 SCT016 SCT033 PROB30 TEMPO 2914/2918 4000 RA

Weather observations and forecasts of more than 4000 airports (METAR and TAF reports).

The available stations are represented by yellow and red dots on the map.

Hover mouse over dot to see the name of the station.

Then click to see weather observations and forecasts.

To change the map : click on the green buttons with a black cross to zoom in, on the green button with a dash to zoom out, or on the green arrows for adjacent maps.


METAR-TAF: